createdAt,value
2022-08-20T05:48:35.733Z,2.67
2022-08-20T05:52:38.585Z,3.13
2022-08-20T05:56:41.642Z,3.40
2022-08-20T06:00:44.221Z,2.65
2022-08-20T06:04:48.099Z,2.60
2022-08-20T06:08:58.879Z,3.60
2022-08-20T06:13:02.887Z,3.58
2022-08-20T06:17:07.861Z,5.82
2022-08-20T06:21:11.764Z,4.43
2022-08-20T06:25:14.331Z,4.95
2022-08-20T06:29:16.985Z,3.80
2022-08-20T06:33:19.568Z,3.97
2022-08-20T06:37:30.851Z,3.90
2022-08-20T06:41:37.161Z,3.10
2022-08-20T06:45:40.659Z,3.00
2022-08-20T06:49:43.248Z,3.50
2022-08-20T06:53:47.344Z,3.60
2022-08-20T06:57:59.309Z,3.17
2022-08-20T07:02:01.959Z,2.95
2022-08-20T07:06:05.094Z,3.35
2022-08-20T07:10:12.196Z,3.00
2022-08-20T07:14:14.963Z,3.17
2022-08-20T07:18:17.893Z,2.65
2022-08-20T07:22:31.114Z,3.05
2022-08-20T07:26:35.353Z,2.70
2022-08-20T07:30:57.824Z,3.13
2022-08-20T07:35:00.552Z,3.30
2022-08-20T07:39:05.730Z,2.55
2022-08-20T07:43:10.683Z,3.58
2022-08-20T07:47:14.107Z,3.78
2022-08-20T07:51:19.126Z,4.43
2022-08-20T07:55:22.828Z,4.63
2022-08-20T07:59:26.756Z,5.00
2022-08-20T08:03:39.907Z,5.85
2022-08-20T08:07:52.088Z,6.65
2022-08-20T08:11:57.515Z,6.60
2022-08-20T08:16:02.119Z,7.15
2022-08-20T08:20:06.930Z,7.10
2022-08-20T08:24:12.127Z,7.20
2022-08-20T08:28:16.107Z,7.75
2022-08-20T08:32:20.079Z,7.65
2022-08-20T08:36:22.610Z,7.38
2022-08-20T08:40:25.188Z,7.57
2022-08-20T08:44:31.119Z,8.88
2022-08-20T08:48:38.312Z,7.75
2022-08-20T08:52:42.080Z,8.38
2022-08-20T08:56:49.703Z,7.90
2022-08-20T09:00:56.487Z,8.00
2022-08-20T09:05:05.101Z,7.75
2022-08-20T09:09:12.196Z,7.47
2022-08-20T09:13:14.759Z,7.88
2022-08-20T09:17:19.097Z,8.32
2022-08-20T09:21:22.974Z,8.98
2022-08-20T09:25:26.040Z,9.25
2022-08-20T09:29:29.356Z,8.25
2022-08-20T09:33:32.102Z,9.48
2022-08-20T09:41:41.331Z,8.73
2022-08-20T09:45:43.944Z,9.23
2022-08-20T09:49:47.260Z,8.90
2022-08-20T09:53:51.561Z,8.30
2022-08-20T09:57:54.716Z,8.52
2022-08-20T10:01:58.221Z,7.45
2022-08-20T10:06:00.865Z,8.35
2022-08-20T10:10:06.431Z,12.23
2022-08-20T10:14:09.075Z,11.50
2022-08-20T10:18:12.280Z,11.27
2022-08-20T10:22:15.131Z,11.80
2022-08-20T10:26:19.243Z,11.45
2022-08-20T10:30:22.728Z,11.13
2022-08-20T10:34:26.382Z,11.13
2022-08-20T10:38:29.083Z,10.02
2022-08-20T10:42:33.009Z,9.55
2022-08-20T10:46:35.776Z,8.93
2022-08-20T10:50:38.366Z,7.80
2022-08-20T10:58:46.173Z,10.93
2022-08-20T11:02:48.813Z,9.23
2022-08-20T11:10:54.043Z,10.05
2022-08-20T11:19:00.512Z,10.57
2022-08-20T11:27:07.570Z,13.98
2022-08-20T11:31:11.572Z,15.00
2022-08-20T11:35:40.984Z,14.98
2022-08-20T11:39:41.617Z,15.77
2022-08-20T11:43:59.494Z,15.85
2022-08-20T11:48:08.378Z,15.43
2022-08-20T11:52:10.937Z,15.27
2022-08-20T11:56:18.061Z,14.52
2022-08-20T12:00:32.039Z,14.63
2022-08-20T12:04:37.279Z,14.45
2022-08-20T12:08:40.012Z,14.57
2022-08-20T12:12:42.587Z,10.20
2022-08-20T12:16:45.162Z,9.05
2022-08-20T12:20:50.851Z,8.70
2022-08-20T12:24:54.234Z,7.82
2022-08-20T12:28:56.786Z,9.18
2022-08-20T12:32:59.696Z,10.30
2022-08-20T12:37:05.645Z,9.57
2022-08-20T12:41:08.267Z,10.38
2022-08-20T12:45:11.762Z,10.02
2022-08-20T12:49:14.332Z,10.63
2022-08-20T12:53:18.614Z,11.77
2022-08-20T12:57:26.261Z,11.82
2022-08-20T13:01:28.860Z,9.32
2022-08-20T13:09:35.693Z,9.23
2022-08-20T13:13:43.501Z,7.20
2022-08-20T13:17:46.173Z,4.20
2022-08-20T13:25:59.139Z,3.20
2022-08-20T13:30:01.679Z,2.92
2022-08-20T13:34:04.346Z,4.25
2022-08-20T13:38:07.117Z,7.70
2022-08-20T13:46:14.239Z,7.15
2022-08-20T13:50:20.250Z,7.93
2022-08-20T13:54:23.960Z,8.23
2022-08-20T13:58:33.660Z,8.35
2022-08-20T14:02:36.214Z,8.68
2022-08-20T14:06:38.780Z,7.80
2022-08-20T14:10:42.537Z,7.65
2022-08-20T14:14:46.867Z,7.60
2022-08-20T14:18:52.734Z,7.20
2022-08-20T14:22:55.794Z,7.07
2022-08-20T14:31:02.300Z,5.73
2022-08-20T14:35:05.920Z,6.45
2022-08-20T14:39:08.726Z,7.38
2022-08-20T14:47:18.759Z,6.82
2022-08-20T14:51:21.328Z,5.82
2022-08-20T14:55:26.579Z,4.63
2022-08-20T14:59:29.229Z,3.50
2022-08-20T15:03:33.104Z,3.30
2022-08-20T15:07:38.581Z,3.65
2022-08-20T15:11:41.404Z,3.70
2022-08-20T15:19:47.767Z,2.70
2022-08-20T15:23:50.470Z,2.50
2022-08-20T15:27:58.320Z,2.90
2022-08-20T15:32:04.712Z,3.20
2022-08-20T15:36:10.836Z,3.50
2022-08-20T15:40:16.784Z,3.95
2022-08-20T15:44:19.424Z,3.45
2022-08-20T15:48:31.521Z,3.92
2022-08-20T15:52:42.100Z,3.83
2022-08-20T15:56:53.740Z,3.78
2022-08-20T16:01:24.457Z,4.07
2022-08-20T16:05:41.800Z,4.30
2022-08-20T16:10:00.577Z,4.43
2022-08-20T16:14:11.747Z,4.15
2022-08-20T16:18:20.167Z,3.92
2022-08-20T16:22:33.041Z,3.58
2022-08-20T16:31:02.766Z,3.53
2022-08-20T16:35:26.282Z,3.25
2022-08-20T16:39:40.363Z,4.00
2022-08-20T16:43:51.973Z,4.03
2022-08-20T16:48:00.068Z,4.10
2022-08-20T16:52:02.795Z,4.20
2022-08-20T16:56:06.202Z,3.65
2022-08-20T17:00:14.576Z,4.18
2022-08-20T17:04:21.904Z,3.72
2022-08-20T17:08:28.432Z,3.35
2022-08-20T17:12:32.406Z,3.40
2022-08-20T17:16:38.288Z,2.78
2022-08-20T17:20:46.048Z,3.33
2022-08-20T17:24:48.943Z,3.08
2022-08-20T17:28:53.218Z,3.42
2022-08-20T17:33:00.424Z,3.22
2022-08-20T17:37:08.379Z,3.15
2022-08-20T17:41:17.196Z,3.45
2022-08-20T17:45:23.631Z,3.70
2022-08-20T17:49:35.588Z,3.85
2022-08-20T17:53:41.034Z,4.30
2022-08-20T17:57:46.272Z,4.32
2022-08-20T18:01:58.366Z,4.50
2022-08-20T18:06:08.423Z,4.43
2022-08-20T18:10:16.619Z,4.07
2022-08-20T18:14:43.888Z,4.55
2022-08-20T18:18:56.599Z,4.13
2022-08-20T18:27:14.848Z,4.43
2022-08-20T18:31:27.884Z,4.60
2022-08-20T18:35:35.150Z,4.65
2022-08-20T18:39:41.443Z,4.78
2022-08-20T18:43:44.600Z,4.88
2022-08-20T18:47:47.735Z,4.03
2022-08-20T18:51:51.766Z,4.82
2022-08-20T18:56:05.035Z,5.30
2022-08-20T19:00:11.921Z,4.57
2022-08-20T19:04:24.308Z,4.50
2022-08-20T19:08:40.084Z,5.43
2022-08-20T19:13:14.185Z,4.95
2022-08-20T19:17:24.736Z,3.72
2022-08-20T19:21:32.519Z,3.38
2022-08-20T19:25:37.831Z,2.95
2022-08-20T19:29:47.181Z,3.50
2022-08-20T19:33:51.604Z,3.60
2022-08-20T19:37:54.466Z,3.70
2022-08-20T19:41:59.513Z,3.30
2022-08-20T19:46:03.536Z,3.70
2022-08-20T19:50:18.318Z,4.05
2022-08-20T19:54:22.438Z,4.53
2022-08-20T19:58:26.653Z,4.20
2022-08-20T20:02:33.007Z,4.80
2022-08-20T20:06:38.763Z,4.40
2022-08-20T20:10:41.465Z,4.70
2022-08-20T20:14:45.305Z,4.20
2022-08-20T20:19:09.091Z,4.70
2022-08-20T20:23:15.866Z,4.50
2022-08-20T20:27:23.365Z,4.40
2022-08-20T20:31:30.242Z,4.47
2022-08-20T20:35:36.300Z,5.15
2022-08-20T20:39:41.676Z,3.97
2022-08-20T20:43:44.692Z,4.88
2022-08-20T20:51:58.766Z,4.90
2022-08-20T20:56:01.422Z,4.47
2022-08-20T21:00:06.288Z,5.00
2022-08-20T21:04:09.337Z,5.10
2022-08-20T21:08:13.600Z,5.28
2022-08-20T21:12:16.202Z,5.20
2022-08-20T21:16:18.890Z,5.28
2022-08-20T21:20:22.508Z,4.90
2022-08-20T21:24:26.494Z,4.78
2022-08-20T21:28:29.816Z,4.15
2022-08-20T21:32:32.688Z,4.05
2022-08-20T21:36:35.560Z,4.30
2022-08-20T21:40:39.466Z,4.63
2022-08-20T21:44:47.955Z,4.18
2022-08-20T21:48:52.323Z,3.97
2022-08-20T21:52:59.134Z,4.00
2022-08-20T21:57:07.218Z,4.65
2022-08-20T22:01:09.859Z,4.18
2022-08-20T22:05:12.535Z,3.97
2022-08-20T22:09:15.858Z,4.20
2022-08-20T22:13:19.996Z,4.10
2022-08-20T22:17:22.584Z,4.55
2022-08-20T22:21:27.591Z,4.57
2022-08-20T22:25:30.365Z,4.30
2022-08-20T22:29:34.316Z,4.10
2022-08-20T22:33:37.344Z,4.82
2022-08-20T22:37:40.006Z,3.97
2022-08-20T22:41:42.565Z,4.30
2022-08-20T22:45:49.662Z,4.00
2022-08-20T22:49:52.334Z,4.00
2022-08-20T22:53:54.970Z,4.43
2022-08-20T22:57:57.620Z,4.00
2022-08-20T23:02:08.330Z,4.20
2022-08-20T23:06:11.879Z,4.75
2022-08-20T23:10:15.113Z,4.65
2022-08-20T23:18:21.581Z,4.70
2022-08-20T23:22:24.169Z,4.20
2022-08-20T23:26:26.761Z,4.50
2022-08-20T23:30:29.951Z,4.13
2022-08-20T23:42:39.492Z,4.35
2022-08-20T23:46:42.075Z,4.57
2022-08-20T23:50:46.142Z,5.15
2022-08-20T23:54:48.731Z,5.15
2022-08-20T23:58:51.415Z,4.90
